Cape Cod — WBK3243 — position and weather

sailwx.info

Track history (hours):
 
Tides and Currents Weather Stations Pressure Air Temp Water Temp Dewpoint Dewpoint Depression Visibility Wind Speed Wind Dir Waves Ship Positions

Cape Cod

Owner: MORAN TOWING CORPORATION, New Canaan, CT. More information available from US FCC via Universal Licensing System and Coast Guard Vessel Documentation Center.

Last reported at 2017-Sep-21 15:30 UTC. Time now 2017-Sep-21 15:57 UTC.
Position N 39°53' W 075°10'.

Length 33 m; draft 4.8 m.

Type: Tug. MMSI: 366939770.

Date/timePositionNaut miles runAvg speedWind from/ knotsBaromVisibWave heightAir tempDewpointWater temp
2017-Sep-21 15:30N 39°53' W 075°10'2 3.0
2017-Sep-21 15:00N 39°54' W 075°08'0 0.4
2017-Sep-21 14:30N 39°54' W 075°08'2 4.4
2017-Sep-21 14:00N 39°53' W 075°11'0 0.6
2017-Sep-21 13:30N 39°53' W 075°11'0 0.0
2017-Sep-21 13:00N 39°53' W 075°11'0 0.0
2017-Sep-21 12:30N 39°53' W 075°11'0 0.0
2017-Sep-21 12:00N 39°53' W 075°11'0 0.0
2017-Sep-21 11:30N 39°53' W 075°11'0 0.0
2017-Sep-21 11:00N 39°53' W 075°11'0 0.0
2017-Sep-21 10:30N 39°53' W 075°11'0 0.0
2017-Sep-21 10:00N 39°53' W 075°11'0 0.0
2017-Sep-21 09:30N 39°53' W 075°11'0 0.0
2017-Sep-21 09:00N 39°53' W 075°11'0 0.0
2017-Sep-21 08:30N 39°53' W 075°11'0 0.0
2017-Sep-21 08:00N 39°53' W 075°11'0 0.0
2017-Sep-21 07:30N 39°53' W 075°11'0 0.0
2017-Sep-21 07:00N 39°53' W 075°11'0 0.0
2017-Sep-21 06:30N 39°53' W 075°11'2 3.6
2017-Sep-21 06:00N 39°52' W 075°13'0 0.5
2017-Sep-21 05:30N 39°52' W 075°13'4 7.2
2017-Sep-21 05:01N 39°53' W 075°08'4 7.4
2017-Sep-21 04:31N 39°57' W 075°08'3 5.5
2017-Sep-21 04:01N 39°59' W 075°05'0 0.1
2017-Sep-21 03:31N 39°59' W 075°05'1 2.3
2017-Sep-21 03:01N 39°58' W 075°07'1 2.4
2017-Sep-21 02:30N 39°59' W 075°05'0 0.1
2017-Sep-21 02:01N 39°59' W 075°05'0 0.0
2017-Sep-21 01:31N 39°59' W 075°05'0 0.0
2017-Sep-21 01:01N 39°59' W 075°05'1 1.1
2017-Sep-21 00:31N 39°58' W 075°06'3 6.8
2017-Sep-21 00:01N 39°55' W 075°08'3 6.2
2017-Sep-20 23:31N 39°53' W 075°11'0 0.3
2017-Sep-20 23:00N 39°53' W 075°11'0 0.0
2017-Sep-20 22:31N 39°53' W 075°11'0 0.0
2017-Sep-20 22:00N 39°53' W 075°11'0 0.0
2017-Sep-20 21:31N 39°53' W 075°11'0 0.0
2017-Sep-20 21:00N 39°53' W 075°11'1 1.7
2017-Sep-20 20:30N 39°53' W 075°12'5 9.6
2017-Sep-20 20:00N 39°51' W 075°17'510.5
2017-Sep-20 19:30N 39°49' W 075°24'510.3
2017-Sep-20 19:00N 39°46' W 075°29'612.5
2017-Sep-20 18:30N 39°40' W 075°32'510.9
2017-Sep-20 18:00N 39°34' W 075°33'612.1
2017-Sep-20 17:30N 39°28' W 075°34'713.1
2017-Sep-20 17:00N 39°23' W 075°29'713.5
2017-Sep-20 16:30N 39°18' W 075°23'12 3.6
2017-Sep-20 13:14N 39°08' W 075°14'2 8.6
2017-Sep-20 13:00N 39°10' W 075°15'4 8.3
2017-Sep-20 12:30N 39°14' W 075°18'4 8.8
2017-Sep-20 12:00N 39°17' W 075°22'5 9.2
2017-Sep-20 11:30N 39°20' W 075°26'510.1
2017-Sep-20 11:00N 39°24' W 075°30'5 9.3
2017-Sep-20 10:30N 39°28' W 075°34'611.2
2017-Sep-20 10:00N 39°33' W 075°33'510.2
2017-Sep-20 09:30N 39°38' W 075°34'611.2
2017-Sep-20 09:00N 39°43' W 075°30'510.9
2017-Sep-20 08:30N 39°48' W 075°26'510.9
2017-Sep-20 08:00N 39°51' W 075°20'5 9.6
2017-Sep-20 07:30N 39°51' W 075°14'4 8.9
2017-Sep-20 07:01N 39°53' W 075°09'4 8.6
2017-Sep-20 06:31N 39°57' W 075°08'2 3.1
2017-Sep-20 06:01N 39°58' W 075°07'0 0.3
2017-Sep-20 05:30N 39°58' W 075°07'0 0.0
2017-Sep-20 05:00N 39°58' W 075°07'0 0.0
2017-Sep-20 04:30N 39°58' W 075°07'0 0.0
2017-Sep-20 04:01N 39°58' W 075°07'0 0.0
2017-Sep-20 03:30N 39°58' W 075°07'0 0.6
2017-Sep-20 03:00N 39°58' W 075°06'4 7.7
2017-Sep-20 02:31N 40°01' W 075°02'5 9.1
2017-Sep-20 02:00N 40°03' W 074°58'8 0.8
2017-Sep-19 16:06N 40°08' W 074°49'210.1
2017-Sep-19 15:57N 40°06' W 074°50'410.0
2017-Sep-19 15:30N 40°04' W 074°55'510.5
2017-Sep-19 15:00N 40°01' W 075°01'5 9.7
2017-Sep-19 14:30N 39°58' W 075°06'5 9.1
2017-Sep-19 14:00N 39°54' W 075°08'2 4.4
2017-Sep-19 13:30N 39°53' W 075°11'0 0.0
2017-Sep-19 13:00N 39°53' W 075°11'0 0.0
2017-Sep-19 12:30N 39°53' W 075°11'0 0.0
2017-Sep-19 12:00N 39°53' W 075°11'2 4.5
2017-Sep-19 11:30N 39°54' W 075°08'5 9.8
2017-Sep-19 11:00N 39°59' W 075°05'0 0.8
2017-Sep-19 10:31N 39°59' W 075°05'4 7.7
2017-Sep-19 10:01N 39°56' W 075°08'3 6.3
2017-Sep-19 09:31N 39°53' W 075°11'0 0.0
2017-Sep-19 09:01N 39°53' W 075°11'0 0.0
2017-Sep-19 08:30N 39°53' W 075°11'0 0.0
2017-Sep-19 08:01N 39°53' W 075°11'0 0.0
2017-Sep-19 07:31N 39°53' W 075°11'0 0.0
2017-Sep-19 07:00N 39°53' W 075°11'0 0.0
2017-Sep-19 06:30N 39°53' W 075°11'0 0.0
2017-Sep-19 06:00N 39°53' W 075°11'0 0.0
2017-Sep-19 05:30N 39°53' W 075°11'4 8.6
2017-Sep-19 05:01N 39°51' W 075°15'4 7.5
2017-Sep-19 04:31N 39°51' W 075°20'0 0.7
2017-Sep-19 04:00N 39°51' W 075°20'2 4.2
2017-Sep-19 03:30N 39°50' W 075°22'2 3.7
2017-Sep-19 03:00N 39°51' W 075°20'0 0.1
2017-Sep-19 02:30N 39°51' W 075°20'0 0.3
2017-Sep-19 02:00N 39°51' W 075°21'0 0.0
2017-Sep-19 01:30N 39°51' W 075°21'0 0.0
2017-Sep-19 01:00N 39°51' W 075°21'0 0.0
2017-Sep-19 00:30N 39°51' W 075°21'0 0.0
2017-Sep-19 00:00N 39°51' W 075°21'0 0.0
2017-Sep-18 23:30N 39°51' W 075°21'0 0.0
2017-Sep-18 23:00N 39°51' W 075°21'0 0.0
2017-Sep-18 22:30N 39°51' W 075°21'0 0.0
2017-Sep-18 22:00N 39°51' W 075°21'0 0.0
2017-Sep-18 21:30N 39°51' W 075°21'0 0.0
2017-Sep-18 21:00N 39°51' W 075°21'3 5.8
2017-Sep-18 20:30N 39°49' W 075°23'2 3.1
2017-Sep-18 19:59N 39°48' W 075°25'0 0.1
2017-Sep-18 19:30N 39°48' W 075°25'0 0.2
2017-Sep-18 19:00N 39°48' W 075°25'1 1.2
2017-Sep-18 18:30N 39°48' W 075°24'1 1.3
2017-Sep-18 18:00N 39°48' W 075°25'3 6.5
2017-Sep-18 17:30N 39°50' W 075°22'5 9.0
2017-Sep-18 17:01N 39°51' W 075°16'4 8.1
2017-Sep-18 16:31N 39°53' W 075°11'1 1.1
2017-Sep-18 16:00N 39°53' W 075°11'0 0.0
2017-Sep-18 15:30N 39°53' W 075°11'0 0.0
2017-Sep-18 15:01N 39°53' W 075°11'0 0.0
2017-Sep-18 14:31N 39°53' W 075°11'0 0.0
2017-Sep-18 14:00N 39°53' W 075°11'0 0.0
2017-Sep-18 13:30N 39°53' W 075°11'0 0.0
2017-Sep-18 13:00N 39°53' W 075°11'0 0.0
2017-Sep-18 12:31N 39°53' W 075°11'0 0.0
2017-Sep-18 12:00N 39°53' W 075°11'0 0.0
2017-Sep-18 11:31N 39°53' W 075°11'0 0.0
2017-Sep-18 11:00N 39°53' W 075°11'0 0.0
2017-Sep-18 10:30N 39°53' W 075°11'0 0.0
2017-Sep-18 10:01N 39°53' W 075°11'0 0.0
2017-Sep-18 09:30N 39°53' W 075°11'0 0.0
2017-Sep-18 09:01N 39°53' W 075°11'0 0.0
2017-Sep-18 08:30N 39°53' W 075°11'0 0.0
2017-Sep-18 08:00N 39°53' W 075°11'0 0.0
2017-Sep-18 07:30N 39°53' W 075°11'0 0.0
2017-Sep-18 07:01N 39°53' W 075°11'2 3.9
2017-Sep-18 06:31N 39°54' W 075°08'0 0.2
2017-Sep-18 06:00N 39°54' W 075°08'1 2.5
2017-Sep-18 05:31N 39°53' W 075°09'0 0.3
2017-Sep-18 05:00N 39°53' W 075°09'1 2.6
2017-Sep-18 04:30N 39°54' W 075°08'0 0.0
2017-Sep-18 04:00N 39°54' W 075°08'0 0.0
2017-Sep-18 03:30N 39°54' W 075°08'0 0.0
2017-Sep-18 03:01N 39°54' W 075°08'0 0.0
2017-Sep-18 02:30N 39°54' W 075°08'0 0.0
2017-Sep-18 02:01N 39°54' W 075°08'0 0.0
2017-Sep-18 01:31N 39°54' W 075°08'0 0.0
2017-Sep-18 01:01N 39°54' W 075°08'0 0.0
2017-Sep-18 00:31N 39°54' W 075°08'0 0.0
2017-Sep-18 00:01N 39°54' W 075°08'0 0.2
2017-Sep-17 23:31N 39°54' W 075°08'0 0.4
2017-Sep-17 23:01N 39°54' W 075°08'0 0.6
2017-Sep-17 22:30N 39°54' W 075°08'1 2.2
2017-Sep-17 22:01N 39°55' W 075°08'0 0.4
2017-Sep-17 21:31N 39°55' W 075°08'1 2.8
2017-Sep-17 21:00N 39°54' W 075°08'0 0.5
2017-Sep-17 20:31N 39°54' W 075°08'0 0.4
2017-Sep-17 20:00N 39°54' W 075°08'2 4.4
2017-Sep-17 19:30N 39°53' W 075°11'0 0.0
2017-Sep-17 19:01N 39°53' W 075°11'0 0.0
2017-Sep-17 18:31N 39°53' W 075°11'0 0.0
2017-Sep-17 18:00N 39°53' W 075°11'0 0.0
2017-Sep-17 17:30N 39°53' W 075°11'0 0.0
2017-Sep-17 17:00N 39°53' W 075°11'0 0.0
2017-Sep-17 16:31N 39°53' W 075°11'0 0.0
2017-Sep-17 16:00N 39°53' W 075°11'0 0.0
2017-Sep-17 15:30N 39°53' W 075°11'0 0.0
2017-Sep-17 15:01N 39°53' W 075°11'0 0.0
2017-Sep-17 14:30N 39°53' W 075°11'0 0.0
2017-Sep-17 14:00N 39°53' W 075°11'1 1.6
2017-Sep-17 13:31N 39°54' W 075°12'1 1.6
2017-Sep-17 13:00N 39°53' W 075°11'0 0.0
2017-Sep-17 12:31N 39°53' W 075°11'0 0.0
2017-Sep-17 12:00N 39°53' W 075°11'0 0.0
2017-Sep-17 11:31N 39°53' W 075°11'0 0.0
2017-Sep-17 11:01N 39°53' W 075°11'0 0.0
2017-Sep-17 10:30N 39°53' W 075°11'0 0.0
2017-Sep-17 10:00N 39°53' W 075°11'0 0.0
2017-Sep-17 09:31N 39°53' W 075°11'0 0.0
2017-Sep-17 09:01N 39°53' W 075°11'0 0.0
2017-Sep-17 08:30N 39°53' W 075°11'0 0.0
2017-Sep-17 08:01N 39°53' W 075°11'0 0.0
2017-Sep-17 07:31N 39°53' W 075°11'0 0.0
2017-Sep-17 07:01N 39°53' W 075°11'0 0.0
2017-Sep-17 06:30N 39°53' W 075°11'0 0.0
2017-Sep-17 06:00N 39°53' W 075°11'0 0.0
2017-Sep-17 05:30N 39°53' W 075°11'0 0.0
2017-Sep-17 05:00N 39°53' W 075°11'0 0.0
2017-Sep-17 04:30N 39°53' W 075°11'0 0.0
2017-Sep-17 04:00N 39°53' W 075°11'0 0.0
2017-Sep-17 03:30N 39°53' W 075°11'0 0.0
2017-Sep-17 03:00N 39°53' W 075°11'0 0.0
2017-Sep-17 02:30N 39°53' W 075°11'0 0.0
2017-Sep-17 02:00N 39°53' W 075°11'0 0.0
2017-Sep-17 01:31N 39°53' W 075°11'0 0.0
2017-Sep-17 01:01N 39°53' W 075°11'0 0.0
2017-Sep-17 00:31N 39°53' W 075°11'0 0.0
2017-Sep-17 00:00N 39°53' W 075°11'0 0.0
2017-Sep-16 23:31N 39°53' W 075°11'0 0.0
2017-Sep-16 23:01N 39°53' W 075°11'0 0.0
2017-Sep-16 22:30N 39°53' W 075°11'0 0.0
2017-Sep-16 22:00N 39°53' W 075°11'0 0.0
2017-Sep-16 21:31N 39°53' W 075°11'0 0.0
2017-Sep-16 21:00N 39°53' W 075°11'0 0.0
2017-Sep-16 20:31N 39°53' W 075°11'0 0.0
2017-Sep-16 20:00N 39°53' W 075°11'0 0.0
2017-Sep-16 19:31N 39°53' W 075°11'0 0.0
2017-Sep-16 19:01N 39°53' W 075°11'0 0.0
2017-Sep-16 18:31N 39°53' W 075°11'0 0.0
2017-Sep-16 18:01N 39°53' W 075°11'0 0.0
2017-Sep-16 17:30N 39°53' W 075°11'0 0.0
2017-Sep-16 17:00N 39°53' W 075°11'0 0.0
2017-Sep-16 16:31N 39°53' W 075°11'0 0.0
2017-Sep-16 16:00N 39°53' W 075°11'0 0.0
2017-Sep-16 15:31N 39°53' W 075°11'0 0.0
2017-Sep-16 15:01N 39°53' W 075°11'0 0.0
2017-Sep-16 14:30N 39°53' W 075°11'0 0.0
2017-Sep-16 14:01N 39°53' W 075°11'0 0.0
2017-Sep-16 13:30N 39°53' W 075°11'0 0.0
2017-Sep-16 13:00N 39°53' W 075°11'0 0.0
2017-Sep-16 12:30N 39°53' W 075°11'3 5.3
2017-Sep-16 12:01N 39°55' W 075°08'3 6.8
2017-Sep-16 11:30N 39°58' W 075°07'0 0.3
2017-Sep-16 11:00N 39°58' W 075°07'1 2.2
2017-Sep-16 10:31N 39°58' W 075°08'4 7.7
2017-Sep-16 10:00N 39°54' W 075°08'4 8.0
2017-Sep-16 09:30N 39°52' W 075°13'4 8.5
2017-Sep-16 09:00N 39°51' W 075°18'4 8.1
2017-Sep-16 08:30N 39°49' W 075°23'4 8.5
2017-Sep-16 08:00N 39°47' W 075°28'4 8.3
2017-Sep-16 07:30N 39°43' W 075°30'4 8.0
2017-Sep-16 07:00N 39°40' W 075°32'4 7.3
2017-Sep-16 06:30N 39°36' W 075°34'4 7.8
2017-Sep-16 06:01N 39°33' W 075°32'4 7.6
2017-Sep-16 05:30N 39°29' W 075°34'4 7.4
2017-Sep-16 05:00N 39°26' W 075°32'4 7.4
2017-Sep-16 04:30N 39°23' W 075°29'4 7.4
2017-Sep-16 03:57N 39°20' W 075°25'15 3.6
2017-Sep-15 23:53N 39°08' W 075°14'513.0
2017-Sep-15 23:30N 39°12' W 075°17'611.9
2017-Sep-15 23:00N 39°17' W 075°22'511.0
2017-Sep-15 22:30N 39°21' W 075°26'510.7
2017-Sep-15 22:00N 39°25' W 075°31'510.0
2017-Sep-15 21:30N 39°30' W 075°34'510.3
2017-Sep-15 21:00N 39°35' W 075°33'5 9.2
2017-Sep-15 20:30N 39°39' W 075°33'612.4
2017-Sep-15 20:00N 39°45' W 075°29'611.6
2017-Sep-15 19:30N 39°49' W 075°24'713.0
2017-Sep-15 19:00N 39°51' W 075°16'4 8.9
2017-Sep-15 18:30N 39°53' W 075°11'0 0.0
2017-Sep-15 18:00N 39°53' W 075°11'0 0.0
2017-Sep-15 17:30N 39°53' W 075°11'0 0.0
2017-Sep-15 17:00N 39°53' W 075°11'0 0.0
2017-Sep-15 16:30N 39°53' W 075°11'0 0.0
2017-Sep-15 16:00N 39°53' W 075°11'0 0.0
2017-Sep-15 15:30N 39°53' W 075°11'0 0.0
2017-Sep-15 15:00N 39°53' W 075°11'2 4.4
2017-Sep-15 14:30N 39°54' W 075°08'0 0.1
2017-Sep-15 14:00N 39°54' W 075°08'0 0.0
2017-Sep-15 13:30N 39°54' W 075°08'0 0.1
2017-Sep-15 13:00N 39°54' W 075°08'0 0.7
2017-Sep-15 12:30N 39°54' W 075°08'0 0.0
2017-Sep-15 12:00N 39°54' W 075°08'0 0.0
2017-Sep-15 11:30N 39°54' W 075°08'0 0.0
2017-Sep-15 11:00N 39°54' W 075°08'0 0.0
2017-Sep-15 10:30N 39°54' W 075°08'0 0.0
2017-Sep-15 10:00N 39°54' W 075°08'3 5.0
2017-Sep-15 09:30N 39°53' W 075°11'511.0
2017-Sep-15 09:00N 39°51' W 075°18'5 9.3
2017-Sep-15 08:30N 39°49' W 075°23'4 8.6
2017-Sep-15 08:00N 39°47' W 075°28'5 9.7
2017-Sep-15 07:30N 39°42' W 075°31'5 9.4
2017-Sep-15 07:00N 39°38' W 075°34'4 8.2
2017-Sep-15 06:30N 39°34' W 075°33'2 4.6
2017-Sep-15 06:00N 39°35' W 075°36'0 0.8
2017-Sep-15 05:31N 39°35' W 075°35'1 2.5
2017-Sep-15 05:01N 39°35' W 075°34'4 8.4
2017-Sep-15 04:31N 39°39' W 075°33'510.0
2017-Sep-15 04:01N 39°44' W 075°30'5 9.9
2017-Sep-15 03:31N 39°48' W 075°26'4 8.1
2017-Sep-15 03:01N 39°50' W 075°22'4 8.4
2017-Sep-15 02:31N 39°51' W 075°16'1 2.2
2017-Sep-15 02:00N 39°51' W 075°15'2 3.5
2017-Sep-15 01:30N 39°52' W 075°13'0 0.0
2017-Sep-15 01:00N 39°52' W 075°13'0 0.1
2017-Sep-15 00:31N 39°52' W 075°13'1 2.9
2017-Sep-15 00:00N 39°53' W 075°11'1 1.4
2017-Sep-14 23:30N 39°53' W 075°11'0 0.0
2017-Sep-14 23:01N 39°53' W 075°11'0 0.0
2017-Sep-14 22:30N 39°53' W 075°11'0 0.0
2017-Sep-14 22:00N 39°53' W 075°11'1 2.9
2017-Sep-14 21:30N 39°53' W 075°09'4 8.8
2017-Sep-14 21:00N 39°57' W 075°08'2 4.4
2017-Sep-14 20:30N 39°59' W 075°06'2 4.8
2017-Sep-14 20:00N 39°57' W 075°08'4 8.7
2017-Sep-14 19:30N 39°53' W 075°09'1 2.5
2017-Sep-14 19:00N 39°53' W 075°11'0 0.0
2017-Sep-14 18:30N 39°53' W 075°11'0 0.0
2017-Sep-14 18:00N 39°53' W 075°11'0 0.0
2017-Sep-14 17:30N 39°53' W 075°11'0 0.0
2017-Sep-14 17:00N 39°53' W 075°11'0 0.0
2017-Sep-14 16:30N 39°53' W 075°11'0 0.0
2017-Sep-14 16:00N 39°53' W 075°11'1 2.7
2017-Sep-14 15:30N 39°53' W 075°12'3 5.9
2017-Sep-14 14:58N 39°51' W 075°16'0 1.0
2017-Sep-14 14:30N 39°51' W 075°15'4 8.2
2017-Sep-14 14:00N 39°53' W 075°11'0 0.0
2017-Sep-14 13:30N 39°53' W 075°11'0 0.0
2017-Sep-14 13:00N 39°53' W 075°11'0 0.0
2017-Sep-14 12:30N 39°53' W 075°11'1 2.5
2017-Sep-14 12:00N 39°54' W 075°12'0 0.1
2017-Sep-14 11:30N 39°54' W 075°12'1 2.5
2017-Sep-14 11:01N 39°52' W 075°12'1 2.9
2017-Sep-14 10:30N 39°53' W 075°11'0 0.0
2017-Sep-14 10:00N 39°53' W 075°11'0 0.0
2017-Sep-14 09:30N 39°53' W 075°11'0 0.0
2017-Sep-14 09:00N 39°53' W 075°11'0 0.0
2017-Sep-14 08:30N 39°53' W 075°11'0 0.0
2017-Sep-14 08:00N 39°53' W 075°11'0 0.0
2017-Sep-14 07:30N 39°53' W 075°11'0 0.0
2017-Sep-14 07:00N 39°53' W 075°11'0 0.0
2017-Sep-14 06:30N 39°53' W 075°11'0 0.0
2017-Sep-14 06:00N 39°53' W 075°11'0 0.0
2017-Sep-14 05:30N 39°53' W 075°11'0 0.0
2017-Sep-14 05:00N 39°53' W 075°11'0 0.0
2017-Sep-14 04:30N 39°53' W 075°11'0 0.0
2017-Sep-14 04:00N 39°53' W 075°11'0 0.0
2017-Sep-14 03:30N 39°53' W 075°11'0 0.0
2017-Sep-14 03:00N 39°53' W 075°11'0 0.0
2017-Sep-14 02:30N 39°53' W 075°11'0 0.0
2017-Sep-14 02:00N 39°53' W 075°11'0 0.0
2017-Sep-14 01:30N 39°53' W 075°11'0 0.0
2017-Sep-14 01:00N 39°53' W 075°11'0 0.0
2017-Sep-14 00:30N 39°53' W 075°11'2 4.2
2017-Sep-14 00:00N 39°52' W 075°13'0 0.2
2017-Sep-13 23:30N 39°52' W 075°13'0 0.0
2017-Sep-13 23:01N 39°52' W 075°13'0 0.0
2017-Sep-13 22:30N 39°52' W 075°13'0 0.8
2017-Sep-13 22:00N 39°52' W 075°13'0 0.8
2017-Sep-13 21:30N 39°52' W 075°13'2 4.4
2017-Sep-13 21:00N 39°53' W 075°11'0 0.0
2017-Sep-13 20:30N 39°53' W 075°11'0 0.0
2017-Sep-13 20:00N 39°53' W 075°11'0 0.0
2017-Sep-13 19:30N 39°53' W 075°11'0 0.2
2017-Sep-13 19:00N 39°53' W 075°11'4 7.7
2017-Sep-13 18:30N 39°51' W 075°15'0 0.0
2017-Sep-13 18:00N 39°51' W 075°15'1 1.7
2017-Sep-13 17:31N 39°51' W 075°14'1 2.8
2017-Sep-13 17:00N 39°51' W 075°16'0 0.0
2017-Sep-13 16:30N 39°51' W 075°16'0 0.0
2017-Sep-13 16:00N 39°51' W 075°16'0 0.0
2017-Sep-13 15:30N 39°51' W 075°16'0 0.0
2017-Sep-13 15:00N 39°51' W 075°16'1 2.4
2017-Sep-13 14:30N 39°51' W 075°14'1 2.9
2017-Sep-13 14:00N 39°52' W 075°13'3 7.0
2017-Sep-13 13:30N 39°53' W 075°08'4 7.8
2017-Sep-13 13:00N 39°57' W 075°08'3 5.1
2017-Sep-13 12:30N 39°59' W 075°06'0 0.3
2017-Sep-13 12:00N 39°59' W 075°06'4 8.4
2017-Sep-13 11:31N 39°55' W 075°08'3 5.5
2017-Sep-13 11:01N 39°53' W 075°11'0 0.0
2017-Sep-13 10:30N 39°53' W 075°11'0 0.0
2017-Sep-13 10:00N 39°53' W 075°11'0 0.0
2017-Sep-13 09:31N 39°53' W 075°11'0 0.0
2017-Sep-13 09:00N 39°53' W 075°11'0 0.0
2017-Sep-13 08:30N 39°53' W 075°11'0 0.0
2017-Sep-13 08:00N 39°53' W 075°11'0 0.0
2017-Sep-13 07:31N 39°53' W 075°11'0 0.0
2017-Sep-13 07:00N 39°53' W 075°11'0 0.0
2017-Sep-13 06:30N 39°53' W 075°11'0 0.0
2017-Sep-13 06:00N 39°53' W 075°11'0 0.0
2017-Sep-13 05:30N 39°53' W 075°11'0 0.0
2017-Sep-13 05:00N 39°53' W 075°11'0 0.0
2017-Sep-13 04:30N 39°53' W 075°11'0 0.0
2017-Sep-13 04:00N 39°53' W 075°11'0 0.0
2017-Sep-13 03:30N 39°53' W 075°11'0 0.0
2017-Sep-13 03:00N 39°53' W 075°11'0 0.0
2017-Sep-13 02:30N 39°53' W 075°11'0 0.0
2017-Sep-13 02:00N 39°53' W 075°11'0 0.0
2017-Sep-13 01:31N 39°53' W 075°11'0 0.0
2017-Sep-13 01:00N 39°53' W 075°11'0 0.5
2017-Sep-13 00:31N 39°53' W 075°11'0 0.1
2017-Sep-13 00:00N 39°53' W 075°11'1 1.7
2017-Sep-12 23:30N 39°53' W 075°12'1 2.3
2017-Sep-12 23:00N 39°53' W 075°11'0 0.0
2017-Sep-12 22:30N 39°53' W 075°11'0 0.0
2017-Sep-12 22:00N 39°53' W 075°11'0 0.0
2017-Sep-12 21:30N 39°53' W 075°11'0 0.0
2017-Sep-12 21:00N 39°53' W 075°11'0 0.0
2017-Sep-12 20:30N 39°53' W 075°11'2 3.8
2017-Sep-12 20:00N 39°54' W 075°08'1 1.3
2017-Sep-12 19:30N 39°54' W 075°08'0 0.9
2017-Sep-12 19:00N 39°54' W 075°08'2 3.1
2017-Sep-12 18:30N 39°53' W 075°10'1 1.4
2017-Sep-12 18:00N 39°53' W 075°11'0 0.0
2017-Sep-12 17:30N 39°53' W 075°11'0 0.0
2017-Sep-12 17:00N 39°53' W 075°11'0 0.0
2017-Sep-12 16:30N 39°53' W 075°11'0 0.0
2017-Sep-12 16:00N 39°53' W 075°11'0 0.0
2017-Sep-12 15:30N 39°53' W 075°11'0 0.0
2017-Sep-12 15:00N 39°53' W 075°11'0 0.0
2017-Sep-12 14:30N 39°53' W 075°11'0 0.0
2017-Sep-12 14:00N 39°53' W 075°11'0 0.0
2017-Sep-12 13:30N 39°53' W 075°11'0 0.0
2017-Sep-12 13:00N 39°53' W 075°11'0 0.0
2017-Sep-12 12:31N 39°53' W 075°11'7 2.2
2017-Sep-12 09:16N 39°59' W 075°05'0 1.5
2017-Sep-12 09:00N 39°59' W 075°04'1 2.0
2017-Sep-12 08:30N 39°58' W 075°06'5 9.2
2017-Sep-12 08:00N 39°54' W 075°08'0 0.8
2017-Sep-12 07:30N 39°54' W 075°08'0 0.0
2017-Sep-12 07:01N 39°54' W 075°08'0 0.4
2017-Sep-12 06:30N 39°54' W 075°08'3 5.2
2017-Sep-12 06:00N 39°53' W 075°11'4 8.9
2017-Sep-12 05:30N 39°51' W 075°17'510.8
2017-Sep-12 05:00N 39°49' W 075°23'4 9.0
2017-Sep-12 04:30N 39°46' W 075°28'511.0
2017-Sep-12 04:00N 39°41' W 075°31'611.0
2017-Sep-12 03:30N 39°37' W 075°34'510.3
2017-Sep-12 03:01N 39°32' W 075°33'510.2
2017-Sep-12 02:30N 39°27' W 075°33'611.1
2017-Sep-12 02:00N 39°22' W 075°28'510.9
2017-Sep-12 01:30N 39°18' W 075°23'611.2
2017-Sep-12 01:01N 39°14' W 075°18'611.3
2017-Sep-12 00:30N 39°09' W 075°15'4 7.9
2017-Sep-12 00:00N 39°06' W 075°12'611.1
2017-Sep-11 23:31N 39°10' W 075°16'612.0
2017-Sep-11 23:00N 39°16' W 075°20'611.9
2017-Sep-11 22:30N 39°20' W 075°25'511.1
2017-Sep-11 22:00N 39°24' W 075°30'510.0
2017-Sep-11 21:30N 39°28' W 075°34'5 9.6
2017-Sep-11 21:01N 39°33' W 075°33'4 8.9
2017-Sep-11 20:31N 39°37' W 075°35'4 8.2
2017-Sep-11 20:01N 39°40' W 075°32'4 7.9
2017-Sep-11 19:30N 39°44' W 075°30'4 7.6
2017-Sep-11 19:00N 39°47' W 075°27'4 7.9
2017-Sep-11 18:30N 39°49' W 075°23'4 7.3
2017-Sep-11 18:00N 39°51' W 075°19'4 8.4
2017-Sep-11 17:30N 39°52' W 075°13'4 8.9
2017-Sep-11 17:00N 39°54' W 075°08'4 9.0
2017-Sep-11 16:30N 39°58' W 075°07'0 0.4
2017-Sep-11 16:00N 39°58' W 075°07'  
Track history (hours):
 
Tides and Currents Weather Stations Pressure Air Temp Water Temp Dewpoint Dewpoint Depression Visibility Wind Speed Wind Dir Waves Ship Positions

Cape Cod

Owner: MORAN TOWING CORPORATION, New Canaan, CT. More information available from US FCC via Universal Licensing System and Coast Guard Vessel Documentation Center.

Last reported at 2017-Sep-21 15:30 UTC. Time now 2017-Sep-21 15:57 UTC.
Position N 39°53' W 075°10'.

Length 33 m; draft 4.8 m.

Type: Tug. MMSI: 366939770.

Date/timePositionNaut miles runAvg speedWind from/ knotsBaromVisibWave heightAir tempDewpointWater temp
2017-Sep-21 15:30N 39°53' W 075°10'2 3.0
2017-Sep-21 15:00N 39°54' W 075°08'0 0.4
2017-Sep-21 14:30N 39°54' W 075°08'2 4.4
2017-Sep-21 14:00N 39°53' W 075°11'0 0.6
2017-Sep-21 13:30N 39°53' W 075°11'0 0.0
2017-Sep-21 13:00N 39°53' W 075°11'0 0.0
2017-Sep-21 12:30N 39°53' W 075°11'0 0.0
2017-Sep-21 12:00N 39°53' W 075°11'0 0.0
2017-Sep-21 11:30N 39°53' W 075°11'0 0.0
2017-Sep-21 11:00N 39°53' W 075°11'0 0.0
2017-Sep-21 10:30N 39°53' W 075°11'0 0.0
2017-Sep-21 10:00N 39°53' W 075°11'0 0.0
2017-Sep-21 09:30N 39°53' W 075°11'0 0.0
2017-Sep-21 09:00N 39°53' W 075°11'0 0.0
2017-Sep-21 08:30N 39°53' W 075°11'0 0.0
2017-Sep-21 08:00N 39°53' W 075°11'0 0.0
2017-Sep-21 07:30N 39°53' W 075°11'0 0.0
2017-Sep-21 07:00N 39°53' W 075°11'0 0.0
2017-Sep-21 06:30N 39°53' W 075°11'2 3.6
2017-Sep-21 06:00N 39°52' W 075°13'0 0.5
2017-Sep-21 05:30N 39°52' W 075°13'4 7.2
2017-Sep-21 05:01N 39°53' W 075°08'4 7.4
2017-Sep-21 04:31N 39°57' W 075°08'3 5.5
2017-Sep-21 04:01N 39°59' W 075°05'0 0.1
2017-Sep-21 03:31N 39°59' W 075°05'1 2.3
2017-Sep-21 03:01N 39°58' W 075°07'1 2.4
2017-Sep-21 02:30N 39°59' W 075°05'0 0.1
2017-Sep-21 02:01N 39°59' W 075°05'0 0.0
2017-Sep-21 01:31N 39°59' W 075°05'0 0.0
2017-Sep-21 01:01N 39°59' W 075°05'1 1.1
2017-Sep-21 00:31N 39°58' W 075°06'3 6.8
2017-Sep-21 00:01N 39°55' W 075°08'3 6.2
2017-Sep-20 23:31N 39°53' W 075°11'0 0.3
2017-Sep-20 23:00N 39°53' W 075°11'0 0.0
2017-Sep-20 22:31N 39°53' W 075°11'0 0.0
2017-Sep-20 22:00N 39°53' W 075°11'0 0.0
2017-Sep-20 21:31N 39°53' W 075°11'0 0.0
2017-Sep-20 21:00N 39°53' W 075°11'1 1.7
2017-Sep-20 20:30N 39°53' W 075°12'5 9.6
2017-Sep-20 20:00N 39°51' W 075°17'510.5
2017-Sep-20 19:30N 39°49' W 075°24'510.3
2017-Sep-20 19:00N 39°46' W 075°29'612.5
2017-Sep-20 18:30N 39°40' W 075°32'510.9
2017-Sep-20 18:00N 39°34' W 075°33'612.1
2017-Sep-20 17:30N 39°28' W 075°34'713.1
2017-Sep-20 17:00N 39°23' W 075°29'713.5
2017-Sep-20 16:30N 39°18' W 075°23'12 3.6
2017-Sep-20 13:14N 39°08' W 075°14'2 8.6
2017-Sep-20 13:00N 39°10' W 075°15'4 8.3
2017-Sep-20 12:30N 39°14' W 075°18'4 8.8
2017-Sep-20 12:00N 39°17' W 075°22'5 9.2
2017-Sep-20 11:30N 39°20' W 075°26'510.1
2017-Sep-20 11:00N 39°24' W 075°30'5 9.3
2017-Sep-20 10:30N 39°28' W 075°34'611.2
2017-Sep-20 10:00N 39°33' W 075°33'510.2
2017-Sep-20 09:30N 39°38' W 075°34'611.2
2017-Sep-20 09:00N 39°43' W 075°30'510.9
2017-Sep-20 08:30N 39°48' W 075°26'510.9
2017-Sep-20 08:00N 39°51' W 075°20'5 9.6
2017-Sep-20 07:30N 39°51' W 075°14'4 8.9
2017-Sep-20 07:01N 39°53' W 075°09'4 8.6
2017-Sep-20 06:31N 39°57' W 075°08'2 3.1
2017-Sep-20 06:01N 39°58' W 075°07'0 0.3
2017-Sep-20 05:30N 39°58' W 075°07'0 0.0
2017-Sep-20 05:00N 39°58' W 075°07'0 0.0
2017-Sep-20 04:30N 39°58' W 075°07'0 0.0
2017-Sep-20 04:01N 39°58' W 075°07'0 0.0
2017-Sep-20 03:30N 39°58' W 075°07'0 0.6
2017-Sep-20 03:00N 39°58' W 075°06'4 7.7
2017-Sep-20 02:31N 40°01' W 075°02'5 9.1
2017-Sep-20 02:00N 40°03' W 074°58'8 0.8
2017-Sep-19 16:06N 40°08' W 074°49'210.1
2017-Sep-19 15:57N 40°06' W 074°50'410.0
2017-Sep-19 15:30N 40°04' W 074°55'510.5
2017-Sep-19 15:00N 40°01' W 075°01'5 9.7
2017-Sep-19 14:30N 39°58' W 075°06'5 9.1
2017-Sep-19 14:00N 39°54' W 075°08'2 4.4
2017-Sep-19 13:30N 39°53' W 075°11'0 0.0
2017-Sep-19 13:00N 39°53' W 075°11'0 0.0
2017-Sep-19 12:30N 39°53' W 075°11'0 0.0
2017-Sep-19 12:00N 39°53' W 075°11'2 4.5
2017-Sep-19 11:30N 39°54' W 075°08'5 9.8
2017-Sep-19 11:00N 39°59' W 075°05'0 0.8
2017-Sep-19 10:31N 39°59' W 075°05'4 7.7
2017-Sep-19 10:01N 39°56' W 075°08'3 6.3
2017-Sep-19 09:31N 39°53' W 075°11'0 0.0
2017-Sep-19 09:01N 39°53' W 075°11'0 0.0
2017-Sep-19 08:30N 39°53' W 075°11'0 0.0
2017-Sep-19 08:01N 39°53' W 075°11'0 0.0
2017-Sep-19 07:31N 39°53' W 075°11'0 0.0
2017-Sep-19 07:00N 39°53' W 075°11'0 0.0
2017-Sep-19 06:30N 39°53' W 075°11'0 0.0
2017-Sep-19 06:00N 39°53' W 075°11'0 0.0
2017-Sep-19 05:30N 39°53' W 075°11'4 8.6
2017-Sep-19 05:01N 39°51' W 075°15'4 7.5
2017-Sep-19 04:31N 39°51' W 075°20'0 0.7
2017-Sep-19 04:00N 39°51' W 075°20'2 4.2
2017-Sep-19 03:30N 39°50' W 075°22'2 3.7
2017-Sep-19 03:00N 39°51' W 075°20'0 0.1
2017-Sep-19 02:30N 39°51' W 075°20'0 0.3
2017-Sep-19 02:00N 39°51' W 075°21'0 0.0
2017-Sep-19 01:30N 39°51' W 075°21'0 0.0
2017-Sep-19 01:00N 39°51' W 075°21'0 0.0
2017-Sep-19 00:30N 39°51' W 075°21'0 0.0
2017-Sep-19 00:00N 39°51' W 075°21'0 0.0
2017-Sep-18 23:30N 39°51' W 075°21'0 0.0
2017-Sep-18 23:00N 39°51' W 075°21'0 0.0
2017-Sep-18 22:30N 39°51' W 075°21'0 0.0
2017-Sep-18 22:00N 39°51' W 075°21'0 0.0
2017-Sep-18 21:30N 39°51' W 075°21'0 0.0
2017-Sep-18 21:00N 39°51' W 075°21'3 5.8
2017-Sep-18 20:30N 39°49' W 075°23'2 3.1
2017-Sep-18 19:59N 39°48' W 075°25'0 0.1
2017-Sep-18 19:30N 39°48' W 075°25'0 0.2
2017-Sep-18 19:00N 39°48' W 075°25'1 1.2
2017-Sep-18 18:30N 39°48' W 075°24'1 1.3
2017-Sep-18 18:00N 39°48' W 075°25'3 6.5
2017-Sep-18 17:30N 39°50' W 075°22'5 9.0
2017-Sep-18 17:01N 39°51' W 075°16'4 8.1
2017-Sep-18 16:31N 39°53' W 075°11'1 1.1
2017-Sep-18 16:00N 39°53' W 075°11'0 0.0
2017-Sep-18 15:30N 39°53' W 075°11'0 0.0
2017-Sep-18 15:01N 39°53' W 075°11'0 0.0
2017-Sep-18 14:31N 39°53' W 075°11'0 0.0
2017-Sep-18 14:00N 39°53' W 075°11'0 0.0
2017-Sep-18 13:30N 39°53' W 075°11'0 0.0
2017-Sep-18 13:00N 39°53' W 075°11'0 0.0
2017-Sep-18 12:31N 39°53' W 075°11'0 0.0
2017-Sep-18 12:00N 39°53' W 075°11'0 0.0
2017-Sep-18 11:31N 39°53' W 075°11'0 0.0
2017-Sep-18 11:00N 39°53' W 075°11'0 0.0
2017-Sep-18 10:30N 39°53' W 075°11'0 0.0
2017-Sep-18 10:01N 39°53' W 075°11'0 0.0
2017-Sep-18 09:30N 39°53' W 075°11'0 0.0
2017-Sep-18 09:01N 39°53' W 075°11'0 0.0
2017-Sep-18 08:30N 39°53' W 075°11'0 0.0
2017-Sep-18 08:00N 39°53' W 075°11'0 0.0
2017-Sep-18 07:30N 39°53' W 075°11'0 0.0
2017-Sep-18 07:01N 39°53' W 075°11'2 3.9
2017-Sep-18 06:31N 39°54' W 075°08'0 0.2
2017-Sep-18 06:00N 39°54' W 075°08'1 2.5
2017-Sep-18 05:31N 39°53' W 075°09'0 0.3
2017-Sep-18 05:00N 39°53' W 075°09'1 2.6
2017-Sep-18 04:30N 39°54' W 075°08'0 0.0
2017-Sep-18 04:00N 39°54' W 075°08'0 0.0
2017-Sep-18 03:30N 39°54' W 075°08'0 0.0
2017-Sep-18 03:01N 39°54' W 075°08'0 0.0
2017-Sep-18 02:30N 39°54' W 075°08'0 0.0
2017-Sep-18 02:01N 39°54' W 075°08'0 0.0
2017-Sep-18 01:31N 39°54' W 075°08'0 0.0
2017-Sep-18 01:01N 39°54' W 075°08'0 0.0
2017-Sep-18 00:31N 39°54' W 075°08'0 0.0
2017-Sep-18 00:01N 39°54' W 075°08'0 0.2
2017-Sep-17 23:31N 39°54' W 075°08'0 0.4
2017-Sep-17 23:01N 39°54' W 075°08'0 0.6
2017-Sep-17 22:30N 39°54' W 075°08'1 2.2
2017-Sep-17 22:01N 39°55' W 075°08'0 0.4
2017-Sep-17 21:31N 39°55' W 075°08'1 2.8
2017-Sep-17 21:00N 39°54' W 075°08'0 0.5
2017-Sep-17 20:31N 39°54' W 075°08'0 0.4
2017-Sep-17 20:00N 39°54' W 075°08'2 4.4
2017-Sep-17 19:30N 39°53' W 075°11'0 0.0
2017-Sep-17 19:01N 39°53' W 075°11'0 0.0
2017-Sep-17 18:31N 39°53' W 075°11'0 0.0
2017-Sep-17 18:00N 39°53' W 075°11'0 0.0
2017-Sep-17 17:30N 39°53' W 075°11'0 0.0
2017-Sep-17 17:00N 39°53' W 075°11'0 0.0
2017-Sep-17 16:31N 39°53' W 075°11'0 0.0
2017-Sep-17 16:00N 39°53' W 075°11'0 0.0
2017-Sep-17 15:30N 39°53' W 075°11'0 0.0
2017-Sep-17 15:01N 39°53' W 075°11'0 0.0
2017-Sep-17 14:30N 39°53' W 075°11'0 0.0
2017-Sep-17 14:00N 39°53' W 075°11'1 1.6
2017-Sep-17 13:31N 39°54' W 075°12'1 1.6
2017-Sep-17 13:00N 39°53' W 075°11'0 0.0
2017-Sep-17 12:31N 39°53' W 075°11'0 0.0
2017-Sep-17 12:00N 39°53' W 075°11'0 0.0
2017-Sep-17 11:31N 39°53' W 075°11'0 0.0
2017-Sep-17 11:01N 39°53' W 075°11'0 0.0
2017-Sep-17 10:30N 39°53' W 075°11'0 0.0
2017-Sep-17 10:00N 39°53' W 075°11'0 0.0
2017-Sep-17 09:31N 39°53' W 075°11'0 0.0
2017-Sep-17 09:01N 39°53' W 075°11'0 0.0
2017-Sep-17 08:30N 39°53' W 075°11'0 0.0
2017-Sep-17 08:01N 39°53' W 075°11'0 0.0
2017-Sep-17 07:31N 39°53' W 075°11'0 0.0
2017-Sep-17 07:01N 39°53' W 075°11'0 0.0
2017-Sep-17 06:30N 39°53' W 075°11'0 0.0
2017-Sep-17 06:00N 39°53' W 075°11'0 0.0
2017-Sep-17 05:30N 39°53' W 075°11'0 0.0
2017-Sep-17 05:00N 39°53' W 075°11'0 0.0
2017-Sep-17 04:30N 39°53' W 075°11'0 0.0
2017-Sep-17 04:00N 39°53' W 075°11'0 0.0
2017-Sep-17 03:30N 39°53' W 075°11'0 0.0
2017-Sep-17 03:00N 39°53' W 075°11'0 0.0
2017-Sep-17 02:30N 39°53' W 075°11'0 0.0
2017-Sep-17 02:00N 39°53' W 075°11'0 0.0
2017-Sep-17 01:31N 39°53' W 075°11'0 0.0
2017-Sep-17 01:01N 39°53' W 075°11'0 0.0
2017-Sep-17 00:31N 39°53' W 075°11'0 0.0
2017-Sep-17 00:00N 39°53' W 075°11'0 0.0
2017-Sep-16 23:31N 39°53' W 075°11'0 0.0
2017-Sep-16 23:01N 39°53' W 075°11'0 0.0
2017-Sep-16 22:30N 39°53' W 075°11'0 0.0
2017-Sep-16 22:00N 39°53' W 075°11'0 0.0
2017-Sep-16 21:31N 39°53' W 075°11'0 0.0
2017-Sep-16 21:00N 39°53' W 075°11'0 0.0
2017-Sep-16 20:31N 39°53' W 075°11'0 0.0
2017-Sep-16 20:00N 39°53' W 075°11'0 0.0
2017-Sep-16 19:31N 39°53' W 075°11'0 0.0
2017-Sep-16 19:01N 39°53' W 075°11'0 0.0
2017-Sep-16 18:31N 39°53' W 075°11'0 0.0
2017-Sep-16 18:01N 39°53' W 075°11'0 0.0
2017-Sep-16 17:30N 39°53' W 075°11'0 0.0
2017-Sep-16 17:00N 39°53' W 075°11'0 0.0
2017-Sep-16 16:31N 39°53' W 075°11'0 0.0
2017-Sep-16 16:00N 39°53' W 075°11'0 0.0
2017-Sep-16 15:31N 39°53' W 075°11'0 0.0
2017-Sep-16 15:01N 39°53' W 075°11'0 0.0
2017-Sep-16 14:30N 39°53' W 075°11'0 0.0
2017-Sep-16 14:01N 39°53' W 075°11'0 0.0
2017-Sep-16 13:30N 39°53' W 075°11'0 0.0
2017-Sep-16 13:00N 39°53' W 075°11'0 0.0
2017-Sep-16 12:30N 39°53' W 075°11'3 5.3
2017-Sep-16 12:01N 39°55' W 075°08'3 6.8
2017-Sep-16 11:30N 39°58' W 075°07'0 0.3
2017-Sep-16 11:00N 39°58' W 075°07'1 2.2
2017-Sep-16 10:31N 39°58' W 075°08'4 7.7
2017-Sep-16 10:00N 39°54' W 075°08'4 8.0
2017-Sep-16 09:30N 39°52' W 075°13'4 8.5
2017-Sep-16 09:00N 39°51' W 075°18'4 8.1
2017-Sep-16 08:30N 39°49' W 075°23'4 8.5
2017-Sep-16 08:00N 39°47' W 075°28'4 8.3
2017-Sep-16 07:30N 39°43' W 075°30'4 8.0
2017-Sep-16 07:00N 39°40' W 075°32'4 7.3
2017-Sep-16 06:30N 39°36' W 075°34'4 7.8
2017-Sep-16 06:01N 39°33' W 075°32'4 7.6
2017-Sep-16 05:30N 39°29' W 075°34'4 7.4
2017-Sep-16 05:00N 39°26' W 075°32'4 7.4
2017-Sep-16 04:30N 39°23' W 075°29'4 7.4
2017-Sep-16 03:57N 39°20' W 075°25'15 3.6
2017-Sep-15 23:53N 39°08' W 075°14'513.0
2017-Sep-15 23:30N 39°12' W 075°17'611.9
2017-Sep-15 23:00N 39°17' W 075°22'511.0
2017-Sep-15 22:30N 39°21' W 075°26'510.7
2017-Sep-15 22:00N 39°25' W 075°31'510.0
2017-Sep-15 21:30N 39°30' W 075°34'510.3
2017-Sep-15 21:00N 39°35' W 075°33'5 9.2
2017-Sep-15 20:30N 39°39' W 075°33'612.4
2017-Sep-15 20:00N 39°45' W 075°29'611.6
2017-Sep-15 19:30N 39°49' W 075°24'713.0
2017-Sep-15 19:00N 39°51' W 075°16'4 8.9
2017-Sep-15 18:30N 39°53' W 075°11'0 0.0
2017-Sep-15 18:00N 39°53' W 075°11'0 0.0
2017-Sep-15 17:30N 39°53' W 075°11'0 0.0
2017-Sep-15 17:00N 39°53' W 075°11'0 0.0
2017-Sep-15 16:30N 39°53' W 075°11'0 0.0
2017-Sep-15 16:00N 39°53' W 075°11'0 0.0
2017-Sep-15 15:30N 39°53' W 075°11'0 0.0
2017-Sep-15 15:00N 39°53' W 075°11'2 4.4
2017-Sep-15 14:30N 39°54' W 075°08'0 0.1
2017-Sep-15 14:00N 39°54' W 075°08'0 0.0
2017-Sep-15 13:30N 39°54' W 075°08'0 0.1
2017-Sep-15 13:00N 39°54' W 075°08'0 0.7
2017-Sep-15 12:30N 39°54' W 075°08'0 0.0
2017-Sep-15 12:00N 39°54' W 075°08'0 0.0
2017-Sep-15 11:30N 39°54' W 075°08'0 0.0
2017-Sep-15 11:00N 39°54' W 075°08'0 0.0
2017-Sep-15 10:30N 39°54' W 075°08'0 0.0
2017-Sep-15 10:00N 39°54' W 075°08'3 5.0
2017-Sep-15 09:30N 39°53' W 075°11'511.0
2017-Sep-15 09:00N 39°51' W 075°18'5 9.3
2017-Sep-15 08:30N 39°49' W 075°23'4 8.6
2017-Sep-15 08:00N 39°47' W 075°28'5 9.7
2017-Sep-15 07:30N 39°42' W 075°31'5 9.4
2017-Sep-15 07:00N 39°38' W 075°34'4 8.2
2017-Sep-15 06:30N 39°34' W 075°33'2 4.6
2017-Sep-15 06:00N 39°35' W 075°36'0 0.8
2017-Sep-15 05:31N 39°35' W 075°35'1 2.5
2017-Sep-15 05:01N 39°35' W 075°34'4 8.4
2017-Sep-15 04:31N 39°39' W 075°33'510.0
2017-Sep-15 04:01N 39°44' W 075°30'5 9.9
2017-Sep-15 03:31N 39°48' W 075°26'4 8.1
2017-Sep-15 03:01N 39°50' W 075°22'4 8.4
2017-Sep-15 02:31N 39°51' W 075°16'1 2.2
2017-Sep-15 02:00N 39°51' W 075°15'2 3.5
2017-Sep-15 01:30N 39°52' W 075°13'0 0.0
2017-Sep-15 01:00N 39°52' W 075°13'0 0.1
2017-Sep-15 00:31N 39°52' W 075°13'1 2.9
2017-Sep-15 00:00N 39°53' W 075°11'1 1.4
2017-Sep-14 23:30N 39°53' W 075°11'0 0.0
2017-Sep-14 23:01N 39°53' W 075°11'0 0.0
2017-Sep-14 22:30N 39°53' W 075°11'0 0.0
2017-Sep-14 22:00N 39°53' W 075°11'1 2.9
2017-Sep-14 21:30N 39°53' W 075°09'4 8.8
2017-Sep-14 21:00N 39°57' W 075°08'2 4.4
2017-Sep-14 20:30N 39°59' W 075°06'2 4.8
2017-Sep-14 20:00N 39°57' W 075°08'4 8.7
2017-Sep-14 19:30N 39°53' W 075°09'1 2.5
2017-Sep-14 19:00N 39°53' W 075°11'0 0.0
2017-Sep-14 18:30N 39°53' W 075°11'0 0.0
2017-Sep-14 18:00N 39°53' W 075°11'0 0.0
2017-Sep-14 17:30N 39°53' W 075°11'0 0.0
2017-Sep-14 17:00N 39°53' W 075°11'0 0.0
2017-Sep-14 16:30N 39°53' W 075°11'0 0.0
2017-Sep-14 16:00N 39°53' W 075°11'1 2.7
2017-Sep-14 15:30N 39°53' W 075°12'3 5.9
2017-Sep-14 14:58N 39°51' W 075°16'0 1.0
2017-Sep-14 14:30N 39°51' W 075°15'4 8.2
2017-Sep-14 14:00N 39°53' W 075°11'0 0.0
2017-Sep-14 13:30N 39°53' W 075°11'0 0.0
2017-Sep-14 13:00N 39°53' W 075°11'0 0.0
2017-Sep-14 12:30N 39°53' W 075°11'1 2.5
2017-Sep-14 12:00N 39°54' W 075°12'0 0.1
2017-Sep-14 11:30N 39°54' W 075°12'1 2.5
2017-Sep-14 11:01N 39°52' W 075°12'1 2.9
2017-Sep-14 10:30N 39°53' W 075°11'0 0.0
2017-Sep-14 10:00N 39°53' W 075°11'0 0.0
2017-Sep-14 09:30N 39°53' W 075°11'0 0.0
2017-Sep-14 09:00N 39°53' W 075°11'0 0.0
2017-Sep-14 08:30N 39°53' W 075°11'0 0.0
2017-Sep-14 08:00N 39°53' W 075°11'0 0.0
2017-Sep-14 07:30N 39°53' W 075°11'0 0.0
2017-Sep-14 07:00N 39°53' W 075°11'0 0.0
2017-Sep-14 06:30N 39°53' W 075°11'0 0.0
2017-Sep-14 06:00N 39°53' W 075°11'0 0.0
2017-Sep-14 05:30N 39°53' W 075°11'0 0.0
2017-Sep-14 05:00N 39°53' W 075°11'0 0.0
2017-Sep-14 04:30N 39°53' W 075°11'0 0.0
2017-Sep-14 04:00N 39°53' W 075°11'0 0.0
2017-Sep-14 03:30N 39°53' W 075°11'0 0.0
2017-Sep-14 03:00N 39°53' W 075°11'0 0.0
2017-Sep-14 02:30N 39°53' W 075°11'0 0.0
2017-Sep-14 02:00N 39°53' W 075°11'0 0.0
2017-Sep-14 01:30N 39°53' W 075°11'0 0.0
2017-Sep-14 01:00N 39°53' W 075°11'0 0.0
2017-Sep-14 00:30N 39°53' W 075°11'2 4.2
2017-Sep-14 00:00N 39°52' W 075°13'0 0.2
2017-Sep-13 23:30N 39°52' W 075°13'0 0.0
2017-Sep-13 23:01N 39°52' W 075°13'0 0.0
2017-Sep-13 22:30N 39°52' W 075°13'0 0.8
2017-Sep-13 22:00N 39°52' W 075°13'0 0.8
2017-Sep-13 21:30N 39°52' W 075°13'2 4.4
2017-Sep-13 21:00N 39°53' W 075°11'0 0.0
2017-Sep-13 20:30N 39°53' W 075°11'0 0.0
2017-Sep-13 20:00N 39°53' W 075°11'0 0.0
2017-Sep-13 19:30N 39°53' W 075°11'0 0.2
2017-Sep-13 19:00N 39°53' W 075°11'4 7.7
2017-Sep-13 18:30N 39°51' W 075°15'0 0.0
2017-Sep-13 18:00N 39°51' W 075°15'1 1.7
2017-Sep-13 17:31N 39°51' W 075°14'1 2.8
2017-Sep-13 17:00N 39°51' W 075°16'0 0.0
2017-Sep-13 16:30N 39°51' W 075°16'0 0.0
2017-Sep-13 16:00N 39°51' W 075°16'0 0.0
2017-Sep-13 15:30N 39°51' W 075°16'0 0.0
2017-Sep-13 15:00N 39°51' W 075°16'1 2.4
2017-Sep-13 14:30N 39°51' W 075°14'1 2.9
2017-Sep-13 14:00N 39°52' W 075°13'3 7.0
2017-Sep-13 13:30N 39°53' W 075°08'4 7.8
2017-Sep-13 13:00N 39°57' W 075°08'3 5.1
2017-Sep-13 12:30N 39°59' W 075°06'0 0.3
2017-Sep-13 12:00N 39°59' W 075°06'4 8.4
2017-Sep-13 11:31N 39°55' W 075°08'3 5.5
2017-Sep-13 11:01N 39°53' W 075°11'0 0.0
2017-Sep-13 10:30N 39°53' W 075°11'0 0.0
2017-Sep-13 10:00N 39°53' W 075°11'0 0.0
2017-Sep-13 09:31N 39°53' W 075°11'0 0.0
2017-Sep-13 09:00N 39°53' W 075°11'0 0.0
2017-Sep-13 08:30N 39°53' W 075°11'0 0.0
2017-Sep-13 08:00N 39°53' W 075°11'0 0.0
2017-Sep-13 07:31N 39°53' W 075°11'0 0.0
2017-Sep-13 07:00N 39°53' W 075°11'0 0.0
2017-Sep-13 06:30N 39°53' W 075°11'0 0.0
2017-Sep-13 06:00N 39°53' W 075°11'0 0.0
2017-Sep-13 05:30N 39°53' W 075°11'0 0.0
2017-Sep-13 05:00N 39°53' W 075°11'0 0.0
2017-Sep-13 04:30N 39°53' W 075°11'0 0.0
2017-Sep-13 04:00N 39°53' W 075°11'0 0.0
2017-Sep-13 03:30N 39°53' W 075°11'0 0.0
2017-Sep-13 03:00N 39°53' W 075°11'0 0.0
2017-Sep-13 02:30N 39°53' W 075°11'0 0.0
2017-Sep-13 02:00N 39°53' W 075°11'0 0.0
2017-Sep-13 01:31N 39°53' W 075°11'0 0.0
2017-Sep-13 01:00N 39°53' W 075°11'0 0.5
2017-Sep-13 00:31N 39°53' W 075°11'0 0.1
2017-Sep-13 00:00N 39°53' W 075°11'1 1.7
2017-Sep-12 23:30N 39°53' W 075°12'1 2.3
2017-Sep-12 23:00N 39°53' W 075°11'0 0.0
2017-Sep-12 22:30N 39°53' W 075°11'0 0.0
2017-Sep-12 22:00N 39°53' W 075°11'0 0.0
2017-Sep-12 21:30N 39°53' W 075°11'0 0.0
2017-Sep-12 21:00N 39°53' W 075°11'0 0.0
2017-Sep-12 20:30N 39°53' W 075°11'2 3.8
2017-Sep-12 20:00N 39°54' W 075°08'1 1.3
2017-Sep-12 19:30N 39°54' W 075°08'0 0.9
2017-Sep-12 19:00N 39°54' W 075°08'2 3.1
2017-Sep-12 18:30N 39°53' W 075°10'1 1.4
2017-Sep-12 18:00N 39°53' W 075°11'0 0.0
2017-Sep-12 17:30N 39°53' W 075°11'0 0.0
2017-Sep-12 17:00N 39°53' W 075°11'0 0.0
2017-Sep-12 16:30N 39°53' W 075°11'0 0.0
2017-Sep-12 16:00N 39°53' W 075°11'0 0.0
2017-Sep-12 15:30N 39°53' W 075°11'0 0.0
2017-Sep-12 15:00N 39°53' W 075°11'0 0.0
2017-Sep-12 14:30N 39°53' W 075°11'0 0.0
2017-Sep-12 14:00N 39°53' W 075°11'0 0.0
2017-Sep-12 13:30N 39°53' W 075°11'0 0.0
2017-Sep-12 13:00N 39°53' W 075°11'0 0.0
2017-Sep-12 12:31N 39°53' W 075°11'7 2.2
2017-Sep-12 09:16N 39°59' W 075°05'0 1.5
2017-Sep-12 09:00N 39°59' W 075°04'1 2.0
2017-Sep-12 08:30N 39°58' W 075°06'5 9.2
2017-Sep-12 08:00N 39°54' W 075°08'0 0.8
2017-Sep-12 07:30N 39°54' W 075°08'0 0.0
2017-Sep-12 07:01N 39°54' W 075°08'0 0.4
2017-Sep-12 06:30N 39°54' W 075°08'3 5.2
2017-Sep-12 06:00N 39°53' W 075°11'4 8.9
2017-Sep-12 05:30N 39°51' W 075°17'510.8
2017-Sep-12 05:00N 39°49' W 075°23'4 9.0
2017-Sep-12 04:30N 39°46' W 075°28'511.0
2017-Sep-12 04:00N 39°41' W 075°31'611.0
2017-Sep-12 03:30N 39°37' W 075°34'510.3
2017-Sep-12 03:01N 39°32' W 075°33'510.2
2017-Sep-12 02:30N 39°27' W 075°33'611.1
2017-Sep-12 02:00N 39°22' W 075°28'510.9
2017-Sep-12 01:30N 39°18' W 075°23'611.2
2017-Sep-12 01:01N 39°14' W 075°18'611.3
2017-Sep-12 00:30N 39°09' W 075°15'4 7.9
2017-Sep-12 00:00N 39°06' W 075°12'611.1
2017-Sep-11 23:31N 39°10' W 075°16'612.0
2017-Sep-11 23:00N 39°16' W 075°20'611.9
2017-Sep-11 22:30N 39°20' W 075°25'511.1
2017-Sep-11 22:00N 39°24' W 075°30'510.0
2017-Sep-11 21:30N 39°28' W 075°34'5 9.6
2017-Sep-11 21:01N 39°33' W 075°33'4 8.9
2017-Sep-11 20:31N 39°37' W 075°35'4 8.2
2017-Sep-11 20:01N 39°40' W 075°32'4 7.9
2017-Sep-11 19:30N 39°44' W 075°30'4 7.6
2017-Sep-11 19:00N 39°47' W 075°27'4 7.9
2017-Sep-11 18:30N 39°49' W 075°23'4 7.3
2017-Sep-11 18:00N 39°51' W 075°19'4 8.4
2017-Sep-11 17:30N 39°52' W 075°13'4 8.9
2017-Sep-11 17:00N 39°54' W 075°08'4 9.0
2017-Sep-11 16:30N 39°58' W 075°07'0 0.4
2017-Sep-11 16:00N 39°58' W 075°07'  

Dump ship's entire track history